Time;durP1;ratioP1;P1;durP2;ratioP2;P2;SDS_P1;SDS_P2;PMS_P1;PMS_P2;Temp;Humidity;BMP_temperature;BMP_pressure;BME280_temperature;BME280_humidity;BME280_pressure;Samples;Min_cycle;Max_cycle;Signal;HPM_P1;HPM_P2
2023/06/26 00:00:28;;;;;;;10.40;8.38;;;17.50;1.00;;;;;;6230434;23;20020;-91
2023/06/26 00:03:16;;;;;;;12.05;8.68;;;17.50;1.00;;;;;;6251390;23;20030;-90
2023/06/26 00:06:03;;;;;;;13.07;8.50;;;17.40;1.00;;;;;;6230218;23;20030;-90
2023/06/26 00:08:53;;;;;;;12.18;8.80;;;17.40;1.00;;;;;;6229753;23;20024;-91
2023/06/26 00:11:42;;;;;;;12.57;8.32;;;17.30;1.00;;;;;;6229647;23;20024;-90
2023/06/26 00:14:30;;;;;;;12.80;8.70;;;17.20;1.00;;;;;;6249220;23;20323;-91
2023/06/26 00:17:19;;;;;;;12.35;8.93;;;17.10;1.00;;;;;;6251502;23;20035;-91
2023/06/26 00:20:06;;;;;;;12.82;8.88;;;17.00;1.00;;;;;;6248283;23;20028;-91
2023/06/26 00:22:58;;;;;;;10.57;8.43;;;17.00;1.00;;;;;;6249461;23;20086;-90
2023/06/26 00:25:46;;;;;;;10.27;8.02;;;16.90;1.00;;;;;;6248634;23;20040;-92
2023/06/26 00:28:36;;;;;;;11.27;8.35;;;16.90;1.30;;;;;;6226883;23;20035;-92
2023/06/26 00:31:24;;;;;;;14.63;7.80;;;16.80;1.00;;;;;;6228789;23;20031;-92
2023/06/26 00:34:14;;;;;;;13.15;8.63;;;16.90;1.00;;;;;;6239321;23;20020;-91
2023/06/26 00:37:01;;;;;;;11.85;8.30;;;17.00;1.00;;;;;;6244629;23;20022;-90
2023/06/26 00:39:49;;;;;;;10.82;7.90;;;16.90;1.00;;;;;;6260882;23;20036;-91
2023/06/26 00:42:38;;;;;;;12.93;8.80;;;16.90;1.00;;;;;;6237019;23;20043;-91
2023/06/26 00:45:27;;;;;;;11.75;8.95;;;16.80;6.00;;;;;;6229262;23;20032;-90
2023/06/26 00:48:30;;;;;;;10.32;8.25;;;16.80;23.40;;;;;;6249867;23;20035;-91
2023/06/26 00:51:31;;;;;;;11.30;8.38;;;16.80;19.80;;;;;;6249474;23;20084;-91
2023/06/26 00:54:22;;;;;;;11.30;8.70;;;16.80;19.50;;;;;;6248474;23;20051;-90
2023/06/26 00:57:10;;;;;;;12.10;8.98;;;16.70;33.10;;;;;;6251363;22;20111;-92
2023/06/26 00:59:59;;;;;;;11.10;7.97;;;16.70;45.20;;;;;;6248686;23;20080;-91
2023/06/26 01:02:46;;;;;;;14.88;8.98;;;16.60;56.10;;;;;;6250708;22;20411;-92
2023/06/26 01:05:35;;;;;;;10.50;8.65;;;16.60;56.00;;;;;;6226863;23;20024;-92
2023/06/26 01:08:23;;;;;;;12.38;8.80;;;16.70;29.80;;;;;;6249585;23;20016;-92
2023/06/26 01:11:13;;;;;;;10.85;8.02;;;16.80;26.40;;;;;;6249437;23;20024;-93
2023/06/26 01:14:02;;;;;;;14.93;9.00;;;16.70;23.20;;;;;;6223858;23;20123;-92
2023/06/26 01:16:51;;;;;;;14.48;8.88;;;16.80;21.50;;;;;;6198193;23;20052;-91
2023/06/26 01:19:41;;;;;;;10.63;8.25;;;16.90;17.30;;;;;;6127590;23;20030;-91
2023/06/26 01:22:44;;;;;;;11.25;8.70;;;17.10;12.70;;;;;;6129388;23;20044;-88
2023/06/26 01:25:54;;;;;;;9.98;7.78;;;17.10;12.60;;;;;;6133107;23;20018;-89
2023/06/26 01:28:44;;;;;;;14.07;8.55;;;17.10;8.70;;;;;;6123189;23;20026;-93
2023/06/26 01:31:32;;;;;;;12.55;8.90;;;17.20;3.60;;;;;;6125410;23;20054;-92
2023/06/26 01:34:20;;;;;;;11.48;8.82;;;17.20;3.00;;;;;;6123092;23;20026;-92
2023/06/26 01:37:10;;;;;;;10.65;7.97;;;17.10;1.40;;;;;;6152423;23;20024;-93
2023/06/26 01:40:20;;;;;;;12.10;8.10;;;17.10;1.80;;;;;;6205371;23;20040;-91
2023/06/26 01:43:31;;;;;;;10.35;8.20;;;17.20;1.00;;;;;;6216256;23;20039;-92
2023/06/26 01:46:45;;;;;;;11.27;8.40;;;17.30;1.00;;;;;;6218266;23;20009;-90
2023/06/26 01:50:05;;;;;;;9.98;8.05;;;17.30;1.00;;;;;;6200897;23;20033;-93
2023/06/26 01:53:19;;;;;;;11.30;8.07;;;17.20;1.00;;;;;;6217041;23;20009;-91
2023/06/26 01:56:12;;;;;;;12.00;7.80;;;17.30;1.00;;;;;;6215852;23;20020;-91
2023/06/26 01:59:05;;;;;;;10.75;8.15;;;17.30;1.00;;;;;;6196942;23;20094;-91
2023/06/26 02:01:54;;;;;;;12.20;7.97;;;17.50;1.00;;;;;;6196781;23;20364;-92
2023/06/26 02:04:48;;;;;;;11.65;8.05;;;17.60;1.00;;;;;;6198603;23;20032;-92
2023/06/26 02:07:36;;;;;;;16.33;8.25;;;17.70;1.00;;;;;;6215155;23;20371;-91
2023/06/26 02:10:23;;;;;;;11.18;7.80;;;17.60;1.00;;;;;;6175038;23;20024;-91
2023/06/26 02:13:11;;;;;;;10.30;8.07;;;17.70;1.00;;;;;;6194695;23;20028;-91
2023/06/26 02:15:58;;;;;;;9.90;7.85;;;17.60;1.00;;;;;;6224568;23;20030;-91
2023/06/26 02:18:47;;;;;;;11.70;8.10;;;17.70;1.00;;;;;;6231848;23;20028;-92
2023/06/26 02:21:35;;;;;;;10.80;8.20;;;17.70;1.00;;;;;;6207977;23;20039;-91
2023/06/26 02:24:23;;;;;;;11.30;8.10;;;17.60;1.00;;;;;;6229266;23;20028;-92
2023/06/26 02:27:14;;;;;;;10.90;7.70;;;17.60;1.00;;;;;;6250918;22;20035;-91
2023/06/26 02:30:22;;;;;;;10.48;7.68;;;17.50;1.00;;;;;;6251138;23;20164;-90
2023/06/26 02:33:45;;;;;;;9.73;7.53;;;17.60;1.00;;;;;;6250214;23;20024;-91
2023/06/26 02:36:39;;;;;;;9.75;7.78;;;17.70;1.00;;;;;;6253067;22;20024;-92
2023/06/26 02:39:42;;;;;;;10.32;7.95;;;17.80;1.00;;;;;;6252292;23;20028;-93
2023/06/26 02:42:36;;;;;;;10.57;8.30;;;17.80;1.00;;;;;;6229027;23;20024;-90
2023/06/26 02:45:23;;;;;;;10.18;7.65;;;18.00;1.00;;;;;;6229266;23;20023;-90
2023/06/26 02:48:12;;;;;;;9.43;8.13;;;18.00;1.00;;;;;;6249762;23;20427;-92
2023/06/26 02:51:01;;;;;;;10.45;8.10;;;18.10;1.00;;;;;;6228159;23;20034;-92
2023/06/26 02:53:50;;;;;;;11.13;7.75;;;18.20;1.00;;;;;;6231559;23;20097;-90
2023/06/26 02:56:38;;;;;;;9.95;8.32;;;18.30;1.00;;;;;;6232489;23;20064;-93
2023/06/26 02:59:37;;;;;;;11.98;8.20;;;18.30;1.00;;;;;;6252099;22;20027;-92
2023/06/26 03:02:24;;;;;;;9.70;7.82;;;18.30;1.00;;;;;;6251709;23;20031;-91
2023/06/26 03:05:28;;;;;;;10.00;7.60;;;18.30;1.00;;;;;;6255493;23;20024;-90
2023/06/26 03:08:18;;;;;;;12.23;8.20;;;18.20;1.00;;;;;;6254721;23;20081;-91
2023/06/26 03:11:10;;;;;;;13.27;8.55;;;18.30;1.00;;;;;;6255153;23;20327;-94
2023/06/26 03:14:13;;;;;;;9.38;7.20;;;18.30;1.00;;;;;;6230293;23;20424;-93
2023/06/26 03:17:03;;;;;;;10.45;7.85;;;18.30;1.00;;;;;;6202591;23;20032;-91
2023/06/26 03:19:51;;;;;;;9.95;7.70;;;18.40;1.00;;;;;;6227918;23;20028;-90
2023/06/26 03:22:38;;;;;;;9.15;7.90;;;18.40;1.00;;;;;;6224625;23;20024;-91
2023/06/26 03:25:29;;;;;;;10.52;8.02;;;18.40;1.00;;;;;;6201810;23;20024;-90
2023/06/26 03:28:40;;;;;;;12.32;8.05;;;18.40;1.00;;;;;;6130419;23;20104;-92
2023/06/26 03:31:27;;;;;;;9.48;7.60;;;18.40;1.00;;;;;;6131296;23;20448;-90
2023/06/26 03:34:15;;;;;;;12.20;8.20;;;18.30;1.00;;;;;;6112569;23;20033;-89
2023/06/26 03:37:07;;;;;;;8.95;7.35;;;18.30;1.00;;;;;;6132718;23;20026;-91
2023/06/26 03:39:59;;;;;;;11.40;7.93;;;18.40;1.00;;;;;;6131386;23;20322;-90
2023/06/26 03:42:47;;;;;;;10.23;7.18;;;18.30;1.00;;;;;;6132367;23;20030;-91
2023/06/26 03:45:39;;;;;;;10.98;7.85;;;18.40;1.00;;;;;;6139587;23;20028;-90
2023/06/26 03:48:31;;;;;;;10.73;7.47;;;18.30;1.00;;;;;;6199785;23;20052;-92
2023/06/26 03:51:19;;;;;;;10.48;7.95;;;18.30;1.00;;;;;;6223297;23;20416;-92
2023/06/26 03:54:08;;;;;;;13.73;7.93;;;18.20;1.00;;;;;;6222609;23;20033;-91
2023/06/26 03:56:58;;;;;;;14.10;7.95;;;18.20;1.00;;;;;;6200989;23;20028;-91
2023/06/26 03:59:46;;;;;;;11.70;7.68;;;18.30;1.00;;;;;;6198582;23;20028;-91
2023/06/26 04:06:56;;;;;;;9.93;7.85;;;18.20;1.00;;;;;;6193280;23;20066;-92
2023/06/26 04:10:29;;;;;;;11.65;7.60;;;18.10;1.00;;;;;;6218465;23;20095;-89
2023/06/26 04:13:16;;;;;;;10.77;8.13;;;18.10;1.00;;;;;;6188227;23;20024;-91
2023/06/26 04:16:07;;;;;;;11.35;8.23;;;18.10;1.00;;;;;;6229324;23;20021;-91
2023/06/26 04:18:56;;;;;;;8.73;7.28;;;18.20;1.00;;;;;;6212595;23;20037;-90
2023/06/26 04:21:45;;;;;;;10.60;7.32;;;18.20;1.00;;;;;;6227834;23;20028;-90
2023/06/26 04:24:32;;;;;;;10.55;8.02;;;18.20;1.00;;;;;;6221909;23;20043;-90
2023/06/26 04:27:30;;;;;;;11.35;8.23;;;18.20;1.00;;;;;;6205862;23;20028;-93
2023/06/26 04:30:41;;;;;;;12.95;7.50;;;18.30;1.00;;;;;;6222706;23;20036;-92
2023/06/26 04:33:33;;;;;;;12.30;8.45;;;18.20;1.00;;;;;;6219848;23;20094;-91
2023/06/26 04:37:32;;;;;;;13.73;8.18;;;18.30;1.00;;;;;;6222401;23;20028;-92
2023/06/26 04:40:26;;;;;;;8.93;7.47;;;18.30;1.00;;;;;;6220144;23;20104;-92
2023/06/26 04:43:31;;;;;;;11.90;7.80;;;18.30;1.00;;;;;;6217987;23;20020;-92
2023/06/26 04:46:32;;;;;;;13.32;8.10;;;18.40;1.00;;;;;;6220141;23;20043;-92
2023/06/26 04:49:45;;;;;;;9.52;7.57;;;18.40;1.00;;;;;;6222669;23;20035;-91
2023/06/26 04:52:51;;;;;;;12.40;8.07;;;18.40;1.00;;;;;;6222542;23;20450;-90
2023/06/26 04:55:39;;;;;;;9.93;7.60;;;18.40;1.00;;;;;;6226693;23;20024;-90
2023/06/26 04:58:32;;;;;;;10.75;7.57;;;18.50;1.00;;;;;;6220414;23;20094;-92
2023/06/26 05:01:34;;;;;;;10.48;7.63;;;18.60;1.00;;;;;;6222322;23;20032;-92
2023/06/26 05:04:54;;;;;;;13.98;8.20;;;18.60;1.00;;;;;;6221294;23;20024;-94
2023/06/26 05:07:44;;;;;;;9.57;7.15;;;18.70;1.00;;;;;;6223628;23;20047;-91
2023/06/26 05:10:36;;;;;;;10.05;7.00;;;18.80;1.00;;;;;;6198466;23;20021;-91
2023/06/26 05:13:41;;;;;;;9.45;7.50;;;18.90;1.00;;;;;;6205836;23;20017;-90
2023/06/26 05:16:36;;;;;;;8.82;7.18;;;18.90;1.00;;;;;;6200339;23;20029;-92
2023/06/26 05:19:48;;;;;;;13.57;7.85;;;19.00;1.00;;;;;;6224875;23;20008;-92
2023/06/26 05:22:38;;;;;;;10.45;7.15;;;19.20;1.00;;;;;;6220715;23;20051;-92
2023/06/26 05:25:30;;;;;;;9.18;6.93;;;19.30;1.00;;;;;;6223493;23;20087;-91
2023/06/26 05:28:18;;;;;;;12.10;7.63;;;19.50;1.00;;;;;;6222701;23;20025;-92
2023/06/26 05:31:06;;;;;;;9.75;7.55;;;19.60;1.00;;;;;;6221154;23;20115;-92
2023/06/26 05:34:13;;;;;;;10.95;7.53;;;19.60;1.00;;;;;;6221225;23;20118;-93
2023/06/26 05:37:07;;;;;;;8.80;7.28;;;19.70;1.00;;;;;;6224707;23;20028;-92
2023/06/26 05:40:08;;;;;;;9.38;7.35;;;19.80;1.00;;;;;;6220774;23;20024;-91
2023/06/26 05:43:00;;;;;;;10.25;7.25;;;20.00;1.00;;;;;;6217308;23;20040;-92
2023/06/26 05:45:49;;;;;;;9.18;7.13;;;20.20;1.00;;;;;;6218072;23;20044;-92
2023/06/26 05:48:40;;;;;;;8.48;6.70;;;20.30;1.00;;;;;;6218600;23;20060;-92
2023/06/26 05:51:43;;;;;;;7.55;6.07;;;20.40;1.00;;;;;;6218597;23;20024;-92
2023/06/26 05:54:34;;;;;;;7.97;6.10;;;20.70;1.00;;;;;;6219191;23;20024;-93
2023/06/26 05:57:51;;;;;;;9.73;6.90;;;20.80;1.00;;;;;;6142777;23;20370;-91
2023/06/26 06:00:43;;;;;;;7.82;6.43;;;21.00;1.00;;;;;;6138718;23;20029;-91
2023/06/26 06:03:46;;;;;;;10.73;7.38;;;21.10;1.00;;;;;;6141295;23;20030;-93
2023/06/26 06:06:34;;;;;;;9.70;6.50;;;21.30;1.00;;;;;;6138998;23;20115;-90
2023/06/26 06:09:21;;;;;;;10.43;6.90;;;21.40;1.00;;;;;;6139139;23;20081;-92
2023/06/26 06:12:09;;;;;;;7.22;6.25;;;21.50;1.00;;;;;;6137706;23;20018;-91
2023/06/26 06:14:56;;;;;;;8.50;7.13;;;21.60;1.00;;;;;;6134744;23;20029;-92
2023/06/26 06:17:44;;;;;;;8.55;6.50;;;21.70;1.00;;;;;;6137583;23;20025;-90
2023/06/26 06:20:42;;;;;;;7.65;6.15;;;21.70;1.00;;;;;;6116462;23;20037;-91
2023/06/26 06:24:09;;;;;;;11.00;6.57;;;21.80;1.00;;;;;;6157762;23;20048;-92
2023/06/26 06:27:17;;;;;;;7.07;5.85;;;21.90;1.00;;;;;;6066094;23;20021;-91
2023/06/26 06:30:06;;;;;;;12.18;6.90;;;22.10;1.00;;;;;;6156345;23;20025;-89
2023/06/26 06:33:26;;;;;;;9.35;6.22;;;22.30;1.00;;;;;;6157842;23;20145;-92
2023/06/26 06:36:49;;;;;;;10.27;5.95;;;22.50;1.00;;;;;;6101774;23;20025;-91
2023/06/26 06:43:54;;;;;;;10.75;6.50;;;23.10;1.00;;;;;;6106967;23;20022;-91
2023/06/26 06:47:28;;;;;;;12.20;6.50;;;23.30;1.00;;;;;;6088256;23;20041;-92
2023/06/26 06:50:22;;;;;;;7.68;6.13;;;23.60;1.00;;;;;;6084433;23;20082;-91
2023/06/26 06:53:40;;;;;;;9.52;5.78;;;23.70;1.00;;;;;;6097613;23;20027;-91
2023/06/26 06:57:27;;;;;;;7.10;6.13;;;24.00;1.00;;;;;;6099790;23;20023;-92
2023/06/26 07:00:39;;;;;;;10.30;6.05;;;24.30;1.00;;;;;;6116771;23;20052;-88
2023/06/26 07:03:43;;;;;;;9.55;6.57;;;24.50;1.00;;;;;;6220915;23;20038;-93
2023/06/26 07:06:31;;;;;;;8.40;6.90;;;24.80;1.00;;;;;;6223057;23;20028;-90
2023/06/26 07:09:22;;;;;;;6.85;5.45;;;24.90;1.00;;;;;;6220799;23;20020;-92
2023/06/26 07:12:15;;;;;;;12.65;6.03;;;25.10;1.00;;;;;;6221751;23;20032;-91
2023/06/26 07:15:44;;;;;;;7.80;5.80;;;25.30;1.00;;;;;;6203824;23;20059;-93
2023/06/26 07:19:06;;;;;;;7.45;5.88;;;25.60;1.00;;;;;;6221582;23;20024;-93
2023/06/26 07:21:55;;;;;;;7.18;5.35;;;26.00;1.00;;;;;;6241773;23;20066;-92
2023/06/26 07:24:50;;;;;;;14.07;5.82;;;26.10;1.00;;;;;;6220034;23;20032;-92
2023/06/26 07:27:57;;;;;;;7.75;5.50;;;26.40;1.00;;;;;;6218113;23;20111;-88
2023/06/26 07:30:45;;;;;;;10.70;5.43;;;26.80;1.00;;;;;;6219336;23;20363;-92
2023/06/26 07:33:32;;;;;;;10.52;6.00;;;27.40;1.00;;;;;;6223181;23;20024;-92
2023/06/26 07:36:41;;;;;;;;;;;;;;;;;;;;;
2023/06/26 07:40:08;;;;;;;7.38;5.70;;;27.60;1.00;;;;;;6188446;23;20025;-91
2023/06/26 07:44:16;;;;;;;6.55;5.32;;;28.00;1.00;;;;;;6114603;23;20030;-93
2023/06/26 07:48:02;;;;;;;9.77;5.35;;;28.50;1.00;;;;;;6125585;23;20056;-92
2023/06/26 07:50:57;;;;;;;;;;;29.20;1.00;;;;;;6119320;23;20382;-91
2023/06/26 07:53:48;;;;;;;7.93;4.93;;;29.70;1.00;;;;;;6120424;23;19944;-91
2023/06/26 07:56:58;;;;;;;6.45;5.03;;;30.00;1.00;;;;;;6127047;23;20132;-90
2023/06/26 08:00:19;;;;;;;9.13;4.63;;;29.90;1.00;;;;;;6162715;23;20033;-90
2023/06/26 08:03:35;;;;;;;5.55;4.70;;;30.00;1.00;;;;;;6201240;23;20033;-91
2023/06/26 08:06:40;;;;;;;6.70;5.20;;;30.40;1.00;;;;;;6143945;23;20046;-89
2023/06/26 08:13:31;;;;;;;5.55;4.78;;;29.80;1.00;;;;;;6073424;23;20161;-89
2023/06/26 08:16:19;;;;;;;10.23;4.90;;;30.00;1.00;;;;;;6156093;23;20131;-93
2023/06/26 08:19:36;;;;;;;9.82;5.00;;;29.70;1.00;;;;;;6111723;23;20026;-92
2023/06/26 08:22:50;;;;;;;5.90;4.93;;;30.00;1.00;;;;;;6138006;23;20109;-89
2023/06/26 08:26:55;;;;;;;6.25;4.70;;;30.40;1.00;;;;;;6111315;23;20026;-92
2023/06/26 08:30:28;;;;;;;7.32;4.50;;;30.40;1.00;;;;;;6041000;23;20333;-92
2023/06/26 08:33:16;;;;;;;8.45;4.15;;;31.40;1.00;;;;;;6100729;23;20041;-90
2023/06/26 08:36:33;;;;;;;6.95;4.80;;;31.90;1.00;;;;;;6084936;23;20109;-91
2023/06/26 08:46:11;;;;;;;7.30;4.60;;;31.90;41.20;;;;;;6191211;23;20029;-92
2023/06/26 08:49:53;;;;;;;4.03;3.63;;;32.60;40.00;;;;;;6175539;23;20052;-92
2023/06/26 08:53:16;;;;;;;5.97;4.00;;;33.30;39.30;;;;;;6178116;23;20036;-91
2023/06/26 08:56:17;;;;;;;4.35;3.95;;;33.50;37.40;;;;;;6202841;23;20312;-91
2023/06/26 08:59:12;;;;;;;9.30;5.00;;;33.10;36.70;;;;;;6241356;23;20056;-92
2023/06/26 09:02:41;;;;;;;9.35;4.60;;;32.00;38.70;;;;;;6241890;23;20098;-92
2023/06/26 09:05:32;;;;;;;5.18;4.68;;;31.40;40.80;;;;;;6255458;22;20407;-93
2023/06/26 09:08:40;;;;;;;7.72;4.57;;;31.80;40.40;;;;;;6240859;23;20036;-91
2023/06/26 09:11:33;;;;;;;5.50;4.63;;;31.80;39.70;;;;;;6263079;23;20344;-92
2023/06/26 09:14:28;;;;;;;4.38;3.88;;;31.70;39.00;;;;;;6260355;23;20020;-90
2023/06/26 09:17:50;;;;;;;8.13;4.82;;;31.80;37.20;;;;;;6210721;23;20023;-87
2023/06/26 09:21:08;;;;;;;;;;;31.80;37.70;;;;;;6222585;23;20072;-89
2023/06/26 09:24:05;;;;;;;4.78;4.18;;;32.60;36.00;;;;;;6236023;23;19927;-93
2023/06/26 09:26:57;;;;;;;6.18;4.40;;;32.70;34.90;;;;;;6232564;23;20024;-92
2023/06/26 09:29:48;;;;;;;4.93;4.40;;;33.00;35.90;;;;;;6210593;23;20032;-92
2023/06/26 09:32:36;;;;;;;5.75;4.97;;;34.20;33.40;;;;;;6202142;23;20395;-92
2023/06/26 09:35:27;;;;;;;4.90;4.40;;;34.30;32.40;;;;;;6201996;23;20044;-92
2023/06/26 09:38:21;;;;;;;6.63;4.40;;;34.70;33.10;;;;;;6202805;23;20103;-92
2023/06/26 09:41:37;;;;;;;4.63;4.20;;;33.70;33.70;;;;;;6202197;23;20024;-92
2023/06/26 09:44:45;;;;;;;5.47;4.43;;;32.70;35.90;;;;;;6200596;23;20039;-91
2023/06/26 09:48:08;;;;;;;4.90;4.37;;;33.30;35.40;;;;;;6200751;23;20032;-93
2023/06/26 09:51:16;;;;;;;4.88;4.45;;;34.80;34.90;;;;;;6199098;23;20095;-93
2023/06/26 09:54:13;;;;;;;7.72;4.22;;;35.10;33.00;;;;;;6198217;23;20020;-93
2023/06/26 09:57:19;;;;;;;6.03;4.57;;;35.40;31.80;;;;;;6201849;23;20032;-93
2023/06/26 10:00:09;;;;;;;9.63;4.80;;;34.00;32.80;;;;;;6195359;23;20025;-92
2023/06/26 10:03:00;;;;;;;5.40;4.78;;;33.50;32.90;;;;;;6196849;23;20056;-91
2023/06/26 10:05:50;;;;;;;6.68;4.40;;;33.30;32.90;;;;;;6179689;23;20040;-91
2023/06/26 10:08:39;;;;;;;6.68;4.63;;;33.70;33.90;;;;;;6196831;23;20084;-93
2023/06/26 10:11:49;;;;;;;6.53;4.82;;;34.70;32.50;;;;;;6198353;23;20044;-93
2023/06/26 10:14:43;;;;;;;5.13;4.60;;;35.30;31.80;;;;;;6177163;23;20028;-91
2023/06/26 10:17:37;;;;;;;6.20;4.45;;;35.80;31.60;;;;;;6199483;23;20405;-90
2023/06/26 10:20:28;;;;;;;5.55;4.43;;;36.30;33.20;;;;;;6198639;23;20029;-91
2023/06/26 10:23:41;;;;;;;5.38;4.88;;;36.00;30.00;;;;;;6202884;23;20032;-92
2023/06/26 10:26:29;;;;;;;6.30;5.03;;;34.20;32.60;;;;;;6198520;23;20076;-92
2023/06/26 10:29:19;;;;;;;7.05;4.70;;;33.30;33.60;;;;;;6197821;23;20110;-92
2023/06/26 10:32:11;;;;;;;6.50;4.50;;;33.50;34.20;;;;;;6199263;23;20068;-92
2023/06/26 10:34:59;;;;;;;5.45;4.85;;;34.30;34.50;;;;;;6198062;23;20617;-93
2023/06/26 10:37:49;;;;;;;8.18;4.90;;;35.20;31.30;;;;;;6199351;23;20360;-89
2023/06/26 10:40:53;;;;;;;5.60;4.72;;;35.60;30.80;;;;;;6196888;23;20024;-91
2023/06/26 10:44:10;;;;;;;5.82;5.00;;;36.00;33.00;;;;;;6200789;23;20039;-91
2023/06/26 10:47:35;;;;;;;7.07;5.15;;;36.00;32.90;;;;;;6199433;23;20410;-92
2023/06/26 10:50:30;;;;;;;7.32;5.38;;;36.30;33.80;;;;;;6195887;23;20017;-91
2023/06/26 10:53:20;;;;;;;6.10;5.50;;;34.80;35.20;;;;;;6196453;23;20029;-89
2023/06/26 10:56:11;;;;;;;5.95;5.30;;;34.00;36.50;;;;;;6197780;23;20059;-91
2023/06/26 10:59:16;;;;;;;7.95;5.53;;;33.50;37.80;;;;;;6197720;23;20043;-91
2023/06/26 11:02:46;;;;;;;6.35;5.75;;;34.00;37.10;;;;;;6208365;23;20364;-91
2023/06/26 11:05:34;;;;;;;8.23;5.47;;;34.60;36.40;;;;;;6196901;23;20024;-89
2023/06/26 11:08:48;;;;;;;5.93;5.20;;;34.40;36.60;;;;;;6197323;23;20021;-92
2023/06/26 11:11:58;;;;;;;6.88;5.20;;;34.10;36.80;;;;;;6220458;23;20021;-92
2023/06/26 11:14:47;;;;;;;7.53;5.38;;;34.80;36.20;;;;;;6201208;23;20020;-90
2023/06/26 11:17:37;;;;;;;7.40;5.43;;;35.50;35.50;;;;;;6198255;23;20487;-92
2023/06/26 11:20:27;;;;;;;7.50;5.75;;;35.80;34.90;;;;;;6220989;23;20320;-89
2023/06/26 11:23:22;;;;;;;9.07;5.75;;;35.40;33.90;;;;;;6195725;23;20035;-90
2023/06/26 11:26:37;;;;;;;5.80;5.20;;;35.60;33.60;;;;;;6111050;23;20037;-87
2023/06/26 11:29:29;;;;;;;6.45;5.53;;;35.70;33.40;;;;;;6113880;23;20137;-91
2023/06/26 11:32:18;;;;;;;5.60;5.03;;;35.50;34.40;;;;;;6113311;23;20029;-90
2023/06/26 11:35:09;;;;;;;7.38;5.57;;;35.30;33.90;;;;;;6108760;23;20041;-90
2023/06/26 11:38:40;;;;;;;7.68;5.85;;;34.60;34.60;;;;;;6114252;23;20018;-94
2023/06/26 11:41:32;;;;;;;7.15;5.40;;;34.50;34.80;;;;;;6110964;23;20030;-92
2023/06/26 11:44:21;;;;;;;6.43;5.75;;;34.70;34.80;;;;;;6155249;23;20024;-92
2023/06/26 11:47:15;;;;;;;8.60;6.10;;;35.40;34.00;;;;;;6196886;23;20324;-88
2023/06/26 11:50:18;;;;;;;8.13;5.68;;;35.30;35.00;;;;;;6201609;23;20380;-91
2023/06/26 11:53:09;;;;;;;7.35;5.78;;;34.30;37.10;;;;;;6199936;23;20029;-92
2023/06/26 11:55:58;;;;;;;6.32;5.72;;;34.00;37.60;;;;;;6182946;23;20048;-88
2023/06/26 11:59:08;;;;;;;9.75;6.25;;;34.50;37.30;;;;;;6204008;23;20059;-92
2023/06/26 12:02:13;;;;;;;8.50;5.40;;;35.00;35.80;;;;;;6211664;23;20187;-90
2023/06/26 12:05:03;;;;;;;5.50;5.00;;;34.70;37.20;;;;;;6200617;23;20056;-92
2023/06/26 12:07:53;;;;;;;6.15;5.22;;;34.50;36.80;;;;;;6217811;23;20087;-92
2023/06/26 12:10:46;;;;;;;6.28;5.68;;;34.50;37.30;;;;;;6198525;23;20447;-92
2023/06/26 12:13:39;;;;;;;6.53;5.13;;;34.40;37.50;;;;;;6202107;23;20024;-92
2023/06/26 12:16:46;;;;;;;10.18;5.35;;;35.30;37.50;;;;;;6208974;23;20025;-90
2023/06/26 12:19:38;;;;;;;6.85;5.30;;;36.60;34.60;;;;;;6218889;23;20056;-89
2023/06/26 12:22:35;;;;;;;5.30;4.57;;;37.60;33.50;;;;;;6220896;23;20103;-91
2023/06/26 12:25:26;;;;;;;5.32;4.63;;;37.30;32.60;;;;;;6219727;23;20095;-92
2023/06/26 12:28:20;;;;;;;8.20;6.00;;;35.40;36.50;;;;;;6222492;23;20024;-91
2023/06/26 12:34:57;;;;;;;6.78;5.32;;;34.20;38.40;;;;;;6219754;23;20009;-93
2023/06/26 12:37:50;;;;;;;6.50;5.40;;;34.20;38.80;;;;;;6223841;23;20028;-90
2023/06/26 12:40:59;;;;;;;6.43;5.25;;;35.00;37.00;;;;;;6221529;23;20043;-88
2023/06/26 12:43:59;;;;;;;;;;;34.40;38.20;;;;;;6228834;23;20048;-92
2023/06/26 12:46:58;;;;;;;8.55;5.53;;;34.20;39.70;;;;;;6229123;23;19922;-91
2023/06/26 12:50:12;;;;;;;8.40;5.40;;;34.70;37.80;;;;;;6230475;23;20035;-92
2023/06/26 12:53:17;;;;;;;9.57;5.63;;;34.80;37.60;;;;;;6228731;23;20016;-88
2023/06/26 12:56:07;;;;;;;7.97;5.93;;;34.90;37.50;;;;;;6227235;23;20019;-92
2023/06/26 12:59:07;;;;;;;7.32;5.50;;;33.90;40.70;;;;;;6221335;23;20029;-90
2023/06/26 13:01:54;;;;;;;9.55;5.80;;;34.50;39.20;;;;;;6220218;23;20029;-91
2023/06/26 13:04:48;;;;;;;6.80;5.85;;;35.50;37.00;;;;;;6222172;23;20516;-91
2023/06/26 13:07:38;;;;;;;6.60;5.82;;;35.00;37.60;;;;;;6111957;23;20094;-92
2023/06/26 13:10:39;;;;;;;6.88;5.40;;;33.50;38.90;;;;;;6118557;23;20076;-91
2023/06/26 13:13:32;;;;;;;10.50;5.30;;;33.80;40.70;;;;;;6116259;23;20141;-90
2023/06/26 13:16:19;;;;;;;6.70;5.53;;;33.70;39.70;;;;;;6113342;23;20026;-91
2023/06/26 13:19:07;;;;;;;9.13;5.53;;;34.00;38.30;;;;;;6108216;23;20036;-88
2023/06/26 13:21:57;;;;;;;6.65;4.78;;;33.60;39.20;;;;;;6088220;23;20036;-89
2023/06/26 13:24:46;;;;;;;6.00;5.15;;;34.10;38.90;;;;;;6124331;23;20029;-89
2023/06/26 13:27:35;;;;;;;7.40;5.70;;;34.70;37.80;;;;;;6219419;23;20032;-91
2023/06/26 13:30:24;;;;;;;7.97;5.20;;;34.40;37.50;;;;;;6217112;23;20081;-91
2023/06/26 13:33:14;;;;;;;10.68;6.03;;;34.50;38.30;;;;;;6220934;23;20024;-90
2023/06/26 13:36:05;;;;;;;6.00;4.93;;;34.60;37.00;;;;;;6198455;23;20046;-90
2023/06/26 13:38:55;;;;;;;6.88;5.03;;;35.20;36.70;;;;;;6219001;23;20463;-91
2023/06/26 13:41:43;;;;;;;8.45;5.35;;;35.70;35.20;;;;;;6220919;22;20035;-90
2023/06/26 13:44:31;;;;;;;5.90;4.97;;;36.10;33.60;;;;;;6220903;23;20032;-87
2023/06/26 13:47:37;;;;;;;5.97;4.72;;;35.60;34.20;;;;;;6219036;23;20052;-91
2023/06/26 13:50:25;;;;;;;8.85;4.97;;;33.80;37.90;;;;;;6219836;23;20107;-88
2023/06/26 13:53:24;;;;;;;8.15;4.97;;;34.20;37.10;;;;;;6238489;23;20103;-91
2023/06/26 13:56:11;;;;;;;10.15;5.30;;;34.30;36.60;;;;;;6221132;23;20430;-93
2023/06/26 13:58:59;;;;;;;9.88;5.03;;;34.60;36.90;;;;;;6224700;23;20059;-92
2023/06/26 14:01:46;;;;;;;9.07;4.82;;;34.80;35.60;;;;;;6225568;23;20132;-88
2023/06/26 14:04:36;;;;;;;6.88;4.90;;;34.10;35.60;;;;;;6223110;23;20024;-91
2023/06/26 14:07:24;;;;;;;5.80;4.55;;;34.40;36.20;;;;;;6218142;23;20139;-89
2023/06/26 14:10:12;;;;;;;7.13;5.30;;;35.00;34.10;;;;;;6196534;23;20028;-92
2023/06/26 14:13:01;;;;;;;8.40;4.82;;;34.90;33.70;;;;;;6218515;23;20021;-90
2023/06/26 14:15:57;;;;;;;7.07;4.93;;;34.70;33.70;;;;;;6217100;23;20021;-92
2023/06/26 14:18:57;;;;;;;6.25;4.50;;;34.80;34.40;;;;;;6218142;23;20020;-91
2023/06/26 14:21:45;;;;;;;5.93;4.70;;;34.50;33.50;;;;;;6195868;23;20082;-89
2023/06/26 14:24:32;;;;;;;6.50;4.57;;;34.20;33.80;;;;;;6218932;23;20026;-89
2023/06/26 14:27:33;;;;;;;7.13;5.13;;;34.20;34.10;;;;;;6198150;23;20107;-91
2023/06/26 14:30:21;;;;;;;6.72;5.20;;;33.70;34.20;;;;;;6198048;23;20031;-90
2023/06/26 14:33:11;;;;;;;4.93;4.43;;;33.20;36.20;;;;;;6199618;23;20024;-91
2023/06/26 14:35:59;;;;;;;4.32;3.92;;;34.00;35.90;;;;;;6199859;23;20025;-92
2023/06/26 14:38:46;;;;;;;5.80;4.22;;;34.70;33.50;;;;;;6218764;23;20024;-92
2023/06/26 14:41:37;;;;;;;4.97;4.20;;;33.40;35.40;;;;;;6218405;23;20028;-90
2023/06/26 14:44:24;;;;;;;5.32;3.70;;;33.40;35.20;;;;;;6221124;23;20079;-92
2023/06/26 14:47:14;;;;;;;6.38;4.40;;;33.90;33.20;;;;;;6197019;23;20029;-93
2023/06/26 14:50:07;;;;;;;8.18;4.20;;;33.70;33.60;;;;;;6176139;23;20021;-92
2023/06/26 14:52:55;;;;;;;5.57;4.00;;;33.60;34.10;;;;;;6215343;23;20099;-89
2023/06/26 14:55:43;;;;;;;4.00;3.05;;;33.50;34.70;;;;;;6195281;23;20114;-92
2023/06/26 14:58:32;;;;;;;4.05;3.42;;;34.00;33.70;;;;;;6196857;23;20035;-91
2023/06/26 15:01:20;;;;;;;5.45;3.10;;;33.50;34.60;;;;;;6217572;23;20035;-93
2023/06/26 15:04:10;;;;;;;4.70;3.53;;;33.90;34.30;;;;;;6198588;23;20020;-90
2023/06/26 15:06:58;;;;;;;7.22;3.05;;;34.30;33.50;;;;;;6217768;23;20064;-89
2023/06/26 15:09:45;;;;;;;6.35;3.22;;;34.00;33.20;;;;;;6195848;23;20043;-91
2023/06/26 15:12:33;;;;;;;4.80;3.50;;;33.40;34.10;;;;;;6196266;23;20064;-92
2023/06/26 15:15:22;;;;;;;5.60;3.15;;;32.80;35.40;;;;;;6196169;23;20155;-92
2023/06/26 15:18:11;;;;;;;12.13;3.85;;;32.60;36.50;;;;;;6216189;23;20360;-90
2023/06/26 15:20:58;;;;;;;5.70;3.42;;;32.40;35.80;;;;;;6239907;23;20020;-90
2023/06/26 15:23:47;;;;;;;5.47;3.88;;;32.20;37.10;;;;;;6216839;23;20200;-90
2023/06/26 15:26:36;;;;;;;6.47;3.65;;;32.40;36.70;;;;;;6215970;23;20036;-86
2023/06/26 15:29:41;;;;;;;5.78;3.67;;;32.60;37.40;;;;;;6220962;23;20036;-91
2023/06/26 15:32:32;;;;;;;5.20;3.58;;;33.10;35.20;;;;;;6202400;23;20047;-91
2023/06/26 15:35:21;;;;;;;7.47;3.30;;;33.40;35.10;;;;;;6219050;23;20031;-90
2023/06/26 15:38:08;;;;;;;7.70;3.60;;;33.50;34.30;;;;;;6217999;23;20033;-90
2023/06/26 15:41:05;;;;;;;9.80;4.07;;;32.50;35.60;;;;;;6221913;23;20042;-91
2023/06/26 15:43:54;;;;;;;7.40;3.97;;;31.50;37.40;;;;;;6225647;23;20020;-89
2023/06/26 15:46:44;;;;;;;7.13;4.13;;;30.70;39.00;;;;;;6220148;23;20052;-89
2023/06/26 15:49:35;;;;;;;6.78;3.70;;;30.30;39.70;;;;;;6218239;23;20416;-90